Latest Weather Observations for Ballarat

IDV60801

Issued at 10:12 pm EST Thursday 16 August 2018 (issued every 10 minutes, with the page automatically refreshed every 10 minutes)

About weather observations | Map of weather stations | Latest weather observations for VIC | Other Formats
Station Details ID: 089002 Name: BALLARAT AERODROME Lat: -37.51 Lon: 143.79 Height: 435.2 m
Data from the previous 72 hours. | See also: Recent months at Ballarat
Date/Time
EST
Temp
°C
App
Temp
°C
Dew
Point
°C
Rel
Hum
%
Delta-T
°C
Wind Press
QNH
hPa
Press
MSL
hPa
Rain since
9am
mm
Dir  Spd
km/h
Gust
km/h
Spd
kts
Gust
kts
16/10:00pm 4.3 1.8 4.0 98 0.1 NW 6 7 3 4 1014.0 1014.6 0.0
16/09:30pm 5.1 2.8 4.8 98 0.1 WNW 6 7 3 4 1014.1 1014.7 0.0
16/09:00pm 5.3 3.0 5.0 98 0.1 W 6 7 3 4 1014.0 1014.6 0.0
16/08:30pm 6.3 2.0 5.1 92 0.5 WSW 17 20 9 11 1014.1 1014.7 0.0
16/08:00pm 5.6 2.6 4.1 90 0.7 WNW 9 11 5 6 1013.9 1014.5 0.0
16/07:30pm 5.3 2.2 3.8 90 0.6 NNW 9 9 5 5 1013.9 1014.5 0.0
16/07:00pm 5.3 2.8 3.5 88 0.8 NNW 6 7 3 4 1013.6 1014.2 0.0
16/06:30pm 5.4 2.6 2.9 84 1.1 NW 7 7 4 4 1013.1 1013.8 0.0
16/06:00pm 5.9 2.7 2.9 81 1.3 NW 9 11 5 6 1012.9 1013.5 0.0
16/05:30pm 7.7 4.0 2.4 69 2.3 WNW 11 17 6 9 1012.8 1013.4 0.0
16/05:00pm 9.5 5.1 2.8 63 2.9 WNW 15 19 8 10 1012.9 1013.5 0.0
16/04:30pm 8.8 3.3 1.7 61 3.0 WNW 20 28 11 15 1013.0 1013.7 0.0
16/04:00pm 9.4 4.0 2.7 63 2.9 W 20 30 11 16 1013.0 1013.7 0.0
16/03:30pm 10.6 4.4 2.4 57 3.6 W 24 33 13 18 1013.0 1013.7 0.0
16/03:00pm 10.3 4.7 3.6 63 3.0 W 22 30 12 16 1012.9 1013.5 0.0
16/02:30pm 10.6 3.8 2.9 59 3.4 WNW 28 33 15 18 1012.8 1013.4 0.0
16/02:00pm 9.7 3.3 3.4 65 2.8 W 26 37 14 20 1012.7 1013.3 0.0
16/01:30pm 10.4 4.0 3.4 62 3.1 W 26 35 14 19 1012.7 1013.3 0.0
16/01:00pm 8.9 4.0 4.3 73 2.1 W 19 32 10 17 1013.3 1013.9 0.0
16/12:30pm 9.2 3.4 4.4 72 2.2 W 24 32 13 17 1013.5 1014.1 0.0
16/12:00pm 9.9 4.3 5.5 74 2.1 W 24 35 13 19 1013.8 1014.4 0.0
16/11:30am 8.9 3.0 4.1 72 2.2 W 24 35 13 19 1013.9 1014.5 0.0
16/11:00am 8.2 2.5 5.0 80 1.5 W 24 39 13 21 1013.8 1014.4 0.0
16/10:30am 8.2 3.3 5.3 82 1.3 W 20 28 11 15 1013.7 1014.3 0.0
16/10:00am 7.9 3.4 5.9 87 0.9 W 19 26 10 14 1013.7 1014.3 0.0
16/09:30am 6.9 1.7 5.7 92 0.6 WNW 22 30 12 16 1013.5 1014.1 0.0
16/09:00am 6.4 2.2 5.7 95 0.3 WNW 17 24 9 13 1013.4 1014.0 1.8
16/08:30am 6.0 1.8 5.7 98 0.1 NW 17 20 9 11 1013.1 1013.8 1.8
16/08:00am 4.6 0.9 4.3 98 0.1 NNW 13 15 7 8 1012.7 1013.3 1.8
16/07:30am 3.9 0.5 3.8 99 0.0 NNW 11 13 6 7 1012.6 1013.2 1.8
16/07:00am 3.7 -0.2 3.6 99 0.0 NNW 13 15 7 8 1012.1 1012.7 1.8
16/06:30am 3.2 0.0 2.9 98 0.1 NNW 9 11 5 6 1011.8 1012.4 1.8
16/06:00am 3.9 0.5 3.8 99 0.0 NW 11 15 6 8 1011.5 1012.1 1.8
16/05:30am 3.0 -0.6 2.9 99 0.0 NW 11 15 6 8 1011.3 1011.9 1.8
16/05:00am 3.3 -0.6 3.2 99 0.0 NW 13 15 7 8 1011.0 1011.5 1.8
16/04:30am 3.8 -0.8 3.7 99 0.0 WNW 17 20 9 11 1010.6 1011.2 1.8
16/04:00am 3.4 -0.9 3.1 98 0.1 WNW 15 17 8 9 1010.4 1011.0 1.8
16/03:30am 4.2 0.0 3.9 98 0.1 NW 15 19 8 10 1010.3 1010.9 1.8
16/03:00am 4.5 0.8 4.2 98 0.1 WNW 13 19 7 10 1010.4 1011.0 1.8
16/02:30am 3.7 0.2 3.4 98 0.1 NW 11 13 6 7 1010.6 1011.2 1.8
16/02:00am 4.1 1.0 3.8 98 0.1 NW 9 15 5 8 1010.5 1011.1 1.8
16/01:30am 4.4 1.0 4.1 98 0.1 NW 11 15 6 8 1010.5 1011.1 1.8
16/01:00am 5.2 1.2 4.8 97 0.2 WNW 15 20 8 11 1010.4 1011.0 1.8
16/12:30am 5.7 1.0 5.3 97 0.2 WNW 19 28 10 15 1010.3 1010.9 1.8
16/12:00am 5.6 0.9 5.2 97 0.2 WNW 19 24 10 13 1010.1 1010.7 1.8
 
Date/Time
EST
Temp
°C
App
Temp
°C
Dew
Point
°C
Rel
Hum
%
Delta-T
°C
Wind Press
QNH
hPa
Press
MSL
hPa
Rain since
9am
mm
Dir  Spd
km/h
Gust
km/h
Spd
kts
Gust
kts
15/11:30pm 5.4 0.5 5.0 97 0.2 WNW 20 26 11 14 1010.1 1010.7 1.8
15/11:00pm 5.8 1.1 5.2 96 0.3 WNW 19 22 10 12 1009.9 1010.5 1.8
15/10:30pm 6.3 2.1 5.6 95 0.3 WNW 17 20 9 11 1010.1 1010.7 1.8
15/10:00pm 6.2 1.8 5.0 92 0.5 NW 17 24 9 13 1009.8 1010.4 1.8
15/09:30pm 6.2 1.2 4.7 90 0.7 WNW 20 30 11 16 1009.6 1010.2 1.8
15/09:00pm 6.6 0.9 4.9 89 0.8 WNW 24 30 13 16 1009.3 1009.9 1.8
15/08:30pm 6.5 1.3 5.5 93 0.5 WNW 22 28 12 15 1009.2 1009.8 1.8
15/08:00pm 6.0 2.2 5.7 98 0.1 NW 15 19 8 10 1009.0 1009.5 1.8
15/07:30pm 6.4 1.7 6.0 97 0.2 NW 20 26 11 14 1008.6 1009.1 1.8
15/07:00pm 6.5 2.4 6.2 98 0.1 WNW 17 20 9 11 1008.2 1008.8 1.8
15/06:30pm 7.3 1.3 7.0 98 0.1 W 28 39 15 21 1008.0 1008.6 1.8
15/06:26pm 7.3 1.3 7.0 98 0.1 W 28 39 15 21 1008.0 1008.6 1.8
15/06:00pm 6.5 3.5 6.2 98 0.1 NNW 11 15 6 8 1007.4 1008.0 1.4
15/05:30pm 7.4 3.5 7.1 98 0.1 NW 17 20 9 11 1007.1 1007.6 1.4
15/05:00pm 7.6 2.8 7.3 98 0.1 WNW 22 32 12 17 1007.0 1007.5 1.4
15/04:30pm 7.7 3.2 6.8 94 0.4 WNW 20 26 11 14 1007.0 1007.5 0.8
15/04:00pm 9.5 3.3 6.0 79 1.7 NW 28 35 15 19 1006.3 1006.8 0.0
15/03:30pm 9.9 4.4 6.1 77 1.8 W 24 33 13 18 1006.3 1006.8 0.0
15/03:00pm 8.5 2.0 6.5 87 0.9 WSW 30 44 16 24 1006.4 1006.9 0.0
15/02:30pm 12.0 4.8 3.0 54 4.1 WNW 30 41 16 22 1005.8 1006.4 0.0
15/02:00pm 13.5 5.3 2.7 48 4.9 WNW 35 43 19 23 1005.5 1006.1 0.0
15/01:30pm 12.6 5.5 3.6 54 4.1 W 30 43 16 23 1005.7 1006.3 0.0
15/01:00pm 11.4 4.1 5.5 67 2.8 W 33 52 18 28 1006.2 1006.7 0.0
15/12:57pm 11.3 3.7 6.0 70 2.5 W 35 52 19 28 1006.3 1006.8 0.0
15/12:51pm 11.2 2.2 4.7 64 3.0 WNW 41 52 22 28 1006.3 1006.8 0.0
15/12:40pm 13.3 5.2 1.3 44 5.3 WNW 33 54 18 29 1006.1 1006.6 0.0
15/12:30pm 12.4 4.6 2.0 49 4.6 WNW 32 43 17 23 1006.3 1006.8 0.0
15/12:00pm 12.8 4.3 1.2 45 5.1 WNW 35 44 19 24 1006.7 1007.2 0.0
15/11:30am 12.3 4.8 3.3 54 4.1 W 32 43 17 23 1006.8 1007.3 0.0
15/11:00am 12.4 2.7 0.8 45 5.0 WNW 41 54 22 29 1006.7 1007.2 0.0
15/10:30am 12.0 4.5 3.5 56 3.9 W 32 48 17 26 1006.6 1007.1 0.0
15/10:00am 11.7 4.7 7.0 73 2.3 WNW 33 43 18 23 1006.8 1007.3 0.0
15/09:30am 10.7 4.9 7.9 83 1.4 WNW 28 39 15 21 1006.9 1007.4 0.0
15/09:00am 9.5 3.5 7.1 85 1.2 WNW 28 35 15 19 1007.1 1007.6 0.2
15/08:30am 9.2 3.9 7.0 86 1.1 NW 24 30 13 16 1006.5 1007.0 0.2
15/08:00am 9.1 1.5 6.0 81 1.5 NNW 35 44 19 24 1006.3 1006.8 0.0
15/07:30am 9.1 1.6 4.7 74 2.0 NNW 33 41 18 22 1005.8 1006.4 0.0
15/07:00am 9.3 2.7 4.3 71 2.3 NNW 28 37 15 20 1005.7 1006.3 0.0
15/06:30am 9.2 2.3 4.8 74 2.0 NW 30 39 16 21 1006.0 1006.5 0.0
15/06:01am 9.9 2.4 4.5 69 2.5 NW 33 52 18 28 1006.1 1006.6 0.0
15/06:00am 9.8 1.9 4.4 69 2.5 NW 35 52 19 28 1006.1 1006.6 0.0
15/05:30am 10.0 1.5 3.1 62 3.1 NNW 37 48 20 26 1005.6 1006.2 0.0
15/05:00am 10.1 1.5 2.7 60 3.3 NNW 37 50 20 27 1005.4 1006.0 0.0
15/04:30am 10.1 0.6 2.0 57 3.5 NNW 41 54 22 29 1005.5 1006.1 0.0
15/04:00am 9.5 2.2 2.4 61 3.1 N 30 37 16 20 1005.6 1006.2 0.0
15/03:30am 8.5 1.6 2.5 66 2.6 N 28 35 15 19 1006.4 1006.9 0.0
15/03:00am 7.1 -0.5 3.0 75 1.8 N 32 44 17 24 1006.6 1007.1 0.0
15/02:30am 7.2 -0.4 2.9 74 1.8 N 32 39 17 21 1007.3 1007.9 0.0
15/02:00am 7.1 -1.4 3.0 75 1.8 N 37 44 20 24 1007.8 1008.4 0.0
15/01:30am 7.3 -0.8 3.4 76 1.7 N 35 46 19 25 1007.8 1008.4 0.0
15/01:00am 7.1 -1.0 3.5 78 1.6 N 35 43 19 23 1008.6 1009.1 0.0
15/12:30am 6.9 -1.5 3.7 80 1.4 NNE 37 50 20 27 1008.5 1009.0 0.0
15/12:00am 6.7 -2.0 4.2 84 1.1 NNE 39 50 21 27 1008.9 1009.4 0.0
 
Date/Time
EST
Temp
°C
App
Temp
°C
Dew
Point
°C
Rel
Hum
%
Delta-T
°C
Wind Press
QNH
hPa
Press
MSL
hPa
Rain since
9am
mm
Dir  Spd
km/h
Gust
km/h
Spd
kts
Gust
kts
14/11:30pm 7.1 -1.2 4.4 83 1.2 N 37 46 20 25 1009.4 1010.0 0.0
14/11:00pm 7.2 0.3 4.7 84 1.1 N 30 39 16 21 1010.6 1011.2 0.0
14/10:30pm 7.6 0.7 4.7 82 1.3 N 30 39 16 21 1011.1 1011.7 0.0
14/10:00pm 8.0 0.6 4.9 81 1.4 N 33 41 18 22 1011.5 1012.1 0.0
14/09:30pm 8.4 0.7 5.2 80 1.5 N 35 46 19 25 1012.0 1012.6 0.0
14/09:00pm 8.8 1.1 5.5 80 1.5 N 35 41 19 22 1012.2 1012.8 0.0
14/08:30pm 9.2 1.9 5.6 78 1.7 N 33 43 18 23 1013.0 1013.7 0.0
14/08:00pm 9.6 2.0 5.6 76 1.9 N 35 48 19 26 1012.9 1013.5 0.0
14/07:30pm 10.0 0.9 5.8 75 2.0 N 43 54 23 29 1012.8 1013.4 0.0
14/07:00pm 10.3 1.6 6.1 75 2.0 N 41 50 22 27 1013.3 1013.9 0.0
14/06:30pm 10.4 1.4 6.2 75 2.0 N 43 57 23 31 1013.3 1013.9 0.0
14/06:00pm 10.9 1.9 6.5 74 2.1 N 43 57 23 31 1013.3 1013.9 0.0
14/05:31pm 11.2 3.0 6.5 73 2.3 N 39 57 21 31 1013.9 1014.5 0.0
14/05:30pm 11.2 2.6 6.5 73 2.3 N 41 57 22 31 1013.9 1014.5 0.0
14/05:00pm 12.0 2.1 6.5 69 2.7 N 48 61 26 33 1014.0 1014.6 0.0
14/04:30pm 12.5 3.1 7.2 70 2.6 N 46 59 25 32 1014.3 1014.9 0.0
14/04:00pm 12.8 3.7 7.0 68 2.9 N 44 57 24 31 1014.9 1015.6 0.0
14/03:30pm 13.2 4.8 7.4 68 2.9 N 41 50 22 27 1015.5 1016.2 0.0
14/03:00pm 13.1 4.7 7.5 69 2.8 N 41 54 22 29 1015.9 1016.5 0.0
14/02:30pm 13.3 5.4 7.7 69 2.8 N 39 50 21 27 1016.3 1016.9 0.0
14/02:00pm 12.7 4.0 7.8 72 2.5 N 43 57 23 31 1016.9 1017.6 0.0
14/01:30pm 12.6 3.7 7.7 72 2.5 N 44 57 24 31 1017.3 1018.0 0.0
14/01:00pm 12.4 3.4 7.3 71 2.5 N 44 54 24 29 1018.0 1018.7 0.0
14/12:30pm 12.5 5.0 8.0 74 2.3 N 37 46 20 25 1018.8 1019.5 0.0
14/12:00pm 12.3 4.7 7.6 73 2.3 N 37 46 20 25 1019.5 1020.2 0.0
14/11:43am 11.9 4.0 7.8 76 2.0 N 39 48 21 26 1019.7 1020.4 0.0
14/11:30am 11.7 5.1 8.6 81 1.6 N 33 46 18 25 1019.9 1020.6 0.0
14/11:00am 9.8 3.1 9.5 98 0.2 N 35 44 19 24 1020.8 1021.5 0.0
14/10:30am 8.6 2.0 8.5 99 0.0 N 33 41 18 22 1021.1 1021.8 0.0
14/10:00am 8.2 1.7 8.2 100 0.0 N 32 41 17 22 1021.3 1022.0 0.0
14/09:30am 7.5 0.8 7.5 100 0.0 N 32 39 17 21 1021.7 1022.4 0.0
14/09:15am 6.8 0.7 6.8 100 0.0 N 28 37 15 20 1022.0 1022.7 0.0
14/09:00am 6.4 0.3 6.4 100 0.0 N 28 33 15 18 1022.0 1022.7 0.4
14/08:32am 5.8 -0.1 5.8 100 0.0 N 26 32 14 17 1022.2 1022.9 0.4
14/08:31am 5.9 0.0 5.9 100 0.0 N 26 32 14 17 1022.2 1022.9 0.4
14/08:30am 5.9 0.0 5.9 100 0.0 N 26 32 14 17 1022.3 1023.0 0.4
14/08:00am 6.0 0.5 6.0 100 0.0 N 24 30 13 16 1022.3 1023.0 0.4
14/07:30am 5.5 -0.1 5.5 100 0.0 N 24 30 13 16 1022.3 1023.0 0.4
14/07:00am 4.3 -0.2 4.3 100 0.0 N 17 20 9 11 1022.4 1023.1 0.4
14/06:41am 4.3 -0.2 4.3 100 0.0 N 17 19 9 10 1022.6 1023.3 0.4
14/06:39am 4.2 -0.3 4.2 100 0.0 N 17 19 9 10 1022.6 1023.3 0.4
14/06:30am 4.4 -0.1 4.4 100 0.0 N 17 20 9 11 1022.6 1023.3 0.4
14/06:00am 4.6 0.2 4.6 100 0.0 N 17 22 9 12 1022.8 1023.6 0.4
14/05:37am 4.6 0.2 4.6 100 0.0 N 17 20 9 11 1022.7 1023.5 0.4
14/05:30am 4.6 0.2 4.6 100 0.0 NNE 17 20 9 11 1022.7 1023.5 0.4
14/05:24am 4.7 0.3 4.7 100 0.0 NNE 17 20 9 11 1022.8 1023.6 0.4
14/05:00am 4.6 0.2 4.6 100 0.0 N 17 20 9 11 1022.8 1023.6 0.4
14/04:30am 4.6 0.5 4.6 100 0.0 N 15 17 8 9 1022.8 1023.6 0.4
14/04:00am 4.5 0.4 4.5 100 0.0 N 15 17 8 9 1023.0 1023.7 0.4
14/03:30am 4.2 0.5 4.2 100 0.0 N 13 17 7 9 1023.1 1023.8 0.4
14/03:00am 5.1 1.5 5.1 100 0.0 N 13 15 7 8 1023.2 1023.9 0.4
14/02:30am 5.3 1.8 5.3 100 0.0 N 13 15 7 8 1023.6 1024.3 0.4
14/02:00am 4.9 0.9 4.8 99 0.0 N 15 17 8 9 1023.8 1024.5 0.4
14/01:30am 5.7 2.2 5.6 99 0.0 N 13 17 7 9 1024.2 1024.9 0.4
14/01:00am 5.7 1.5 5.6 99 0.0 N 17 17 9 9 1024.3 1025.0 0.4
14/12:30am 6.2 3.2 6.1 99 0.0 N 11 13 6 7 1024.4 1025.1 0.4
14/12:00am 7.2 4.4 7.1 99 0.0 N 11 15 6 8 1024.6 1025.4 0.4
 
Date/Time
EST
Temp
°C
App
Temp
°C
Dew
Point
°C
Rel
Hum
%
Delta-T
°C
Wind Press
QNH
hPa
Press
MSL
hPa
Rain since
9am
mm
Dir  Spd
km/h
Gust
km/h
Spd
kts
Gust
kts
13/11:30pm 7.3 4.2 7.2 99 0.0 N 13 17 7 9 1024.7 1025.5 0.4
13/11:00pm 6.5 2.8 6.4 99 0.0 N 15 17 8 9 1024.6 1025.4 0.4
13/10:30pm 5.8 2.0 5.7 99 0.0 N 15 19 8 10 1024.9 1025.7 0.4

Other Formats:

Comma delimited format used in spreadsheet applications
http://www.bom.gov.au/fwo/IDV60801/IDV60801.94852.axf

JavaScript Object Notation format (JSON) in row-major order
http://www.bom.gov.au/fwo/IDV60801/IDV60801.94852.json